Time;durP1;ratioP1;P1;durP2;ratioP2;P2;SDS_P1;SDS_P2;PMS_P1;PMS_P2;Temp;Humidity;BMP_temperature;BMP_pressure;BME280_temperature;BME280_humidity;BME280_pressure;Samples;Min_cycle;Max_cycle;Signal;HPM_P1;HPM_P2
2023/10/20 00:01:07;;;;;;;;;;;9.10;99.90;;;;;;5118264;27;19937;-48
2023/10/20 00:03:32;;;;;;;;;;;9.10;99.90;;;;;;5134856;27;20338;-48
2023/10/20 00:05:58;;;;;;;;;;;9.10;99.90;;;;;;5134716;27;19960;-47
2023/10/20 00:08:24;;;;;;;;;;;9.10;99.90;;;;;;5134465;27;20006;-48
2023/10/20 00:10:49;;;;;;;;;;;9.10;99.90;;;;;;5134002;27;19964;-50
2023/10/20 00:13:15;;;;;;;;;;;9.10;99.90;;;;;;5134741;27;19907;-50
2023/10/20 00:15:43;;;;;;;;;;;9.10;99.90;;;;;;5134663;27;19919;-50
2023/10/20 00:18:09;;;;;;;;;;;9.10;99.90;;;;;;5134441;27;19908;-49
2023/10/20 00:20:34;;;;;;;;;;;9.10;99.90;;;;;;5134369;27;19915;-48
2023/10/20 00:23:00;;;;;;;;;;;9.00;99.90;;;;;;5134557;27;20358;-51
2023/10/20 00:25:25;;;;;;;;;;;9.00;99.90;;;;;;5134479;27;20258;-48
2023/10/20 00:27:51;;;;;;;;;;;9.00;99.90;;;;;;5134363;27;19907;-48
2023/10/20 00:30:16;;;;;;;;;;;9.10;99.90;;;;;;5134240;27;19938;-49
2023/10/20 00:32:42;;;;;;;;;;;9.00;99.90;;;;;;5133953;27;19918;-48
2023/10/20 00:35:09;;;;;;;;;;;9.00;99.90;;;;;;5134348;27;20346;-47
2023/10/20 00:37:34;;;;;;;;;;;9.00;99.90;;;;;;5133968;27;19919;-50
2023/10/20 00:40:00;;;;;;;;;;;9.00;99.90;;;;;;5133723;27;20445;-47
2023/10/20 00:42:25;;;;;;;;;;;9.00;99.90;;;;;;5133972;27;19907;-49
2023/10/20 00:44:53;;;;;;;;;;;9.10;99.90;;;;;;5133999;27;19907;-48
2023/10/20 00:47:19;;;;;;;;;;;9.00;99.90;;;;;;5133743;27;20365;-49
2023/10/20 00:49:45;;;;;;;;;;;9.00;99.90;;;;;;5133919;27;19916;-49
2023/10/20 00:52:12;;;;;;;;;;;9.10;99.90;;;;;;5133954;27;19914;-47
2023/10/20 00:54:38;;;;;;;;;;;9.00;99.90;;;;;;5133879;27;19960;-46
2023/10/20 00:57:03;;;;;;;;;;;9.00;99.90;;;;;;5133859;27;19912;-48
2023/10/20 00:59:28;;;;;;;;;;;9.00;99.90;;;;;;5133724;27;19914;-47
2023/10/20 01:01:54;;;;;;;;;;;9.00;99.90;;;;;;5121226;27;19912;-48
2023/10/20 01:04:20;;;;;;;;;;;9.00;99.90;;;;;;5112899;28;19912;-46
2023/10/20 01:06:48;;;;;;;;;;;9.00;99.90;;;;;;5113287;28;19908;-46
2023/10/20 01:09:22;;;;;;;;;;;9.00;99.90;;;;;;5113285;28;19916;-47
2023/10/20 01:11:47;;;;;;;;;;;9.00;99.90;;;;;;5113016;28;20001;-46
2023/10/20 01:14:13;;;;;;;;;;;9.00;99.90;;;;;;5113177;28;19962;-47
2023/10/20 01:16:38;;;;;;;;;;;9.00;99.90;;;;;;5113142;28;19960;-48
2023/10/20 01:19:04;;;;;;;;;;;9.00;99.90;;;;;;5112960;28;19908;-48
2023/10/20 01:21:30;;;;;;;;;;;9.00;99.90;;;;;;5113773;28;19915;-49
2023/10/20 01:23:55;;;;;;;;;;;9.00;99.90;;;;;;5117288;28;19912;-47
2023/10/20 01:26:21;;;;;;;;;;;9.00;99.90;;;;;;5118390;27;19912;-50
2023/10/20 01:28:46;;;;;;;;;;;8.90;99.90;;;;;;5117259;28;19953;-47
2023/10/20 01:31:12;;;;;;;;;;;9.00;99.90;;;;;;5117094;28;19971;-46
2023/10/20 01:33:38;;;;;;;;;;;9.00;99.90;;;;;;5117287;28;19912;-46
2023/10/20 01:36:03;;;;;;;;;;;8.90;99.90;;;;;;5117155;28;19912;-48
2023/10/20 01:38:29;;;;;;;;;;;9.00;99.90;;;;;;5116715;27;19930;-48
2023/10/20 01:40:55;;;;;;;;;;;9.00;99.90;;;;;;5116968;28;19907;-49
2023/10/20 01:43:20;;;;;;;;;;;8.90;99.90;;;;;;5116802;28;19918;-47
2023/10/20 01:45:46;;;;;;;;;;;8.90;99.90;;;;;;5116844;28;19908;-47
2023/10/20 01:48:11;;;;;;;;;;;8.90;99.90;;;;;;5117000;28;20350;-47
2023/10/20 01:50:37;;;;;;;;;;;8.90;99.90;;;;;;5116913;28;20018;-47
2023/10/20 01:53:02;;;;;;;;;;;8.90;99.90;;;;;;5116729;28;19919;-47
2023/10/20 01:55:28;;;;;;;;;;;8.90;99.90;;;;;;5120343;27;19934;-50
2023/10/20 01:57:53;;;;;;;;;;;8.90;99.90;;;;;;5137249;27;20005;-47
2023/10/20 02:00:19;;;;;;;;;;;8.90;99.90;;;;;;5137189;27;19915;-49
2023/10/20 02:02:44;;;;;;;;;;;8.90;99.90;;;;;;5137153;27;20308;-48
2023/10/20 02:05:10;;;;;;;;;;;8.90;99.90;;;;;;5137131;27;19930;-50
2023/10/20 02:07:36;;;;;;;;;;;8.90;99.90;;;;;;5137138;27;19998;-46
2023/10/20 02:10:02;;;;;;;;;;;8.90;99.90;;;;;;5136819;27;20379;-48
2023/10/20 02:12:27;;;;;;;;;;;8.90;99.90;;;;;;5137113;27;19908;-47
2023/10/20 02:14:53;;;;;;;;;;;8.90;99.90;;;;;;5136819;27;19915;-49
2023/10/20 02:17:19;;;;;;;;;;;8.90;99.90;;;;;;5137054;27;19914;-48
2023/10/20 02:19:44;;;;;;;;;;;8.90;99.90;;;;;;5136870;27;19994;-47
2023/10/20 02:22:10;;;;;;;;;;;8.90;99.90;;;;;;5136975;27;19907;-47
2023/10/20 02:24:36;;;;;;;;;;;8.90;99.90;;;;;;5136863;27;19908;-49
2023/10/20 02:27:02;;;;;;;;;;;8.90;99.90;;;;;;5119276;27;20358;-46
2023/10/20 02:29:27;;;;;;;;;;;8.90;99.90;;;;;;5115998;28;19967;-48
2023/10/20 02:31:52;;;;;;;;;;;8.90;99.90;;;;;;5116040;28;19922;-50
2023/10/20 02:34:18;;;;;;;;;;;8.90;99.90;;;;;;5115808;28;19908;-48
2023/10/20 02:36:44;;;;;;;;;;;8.90;99.90;;;;;;5116063;27;19915;-48
2023/10/20 02:39:09;;;;;;;;;;;8.90;99.90;;;;;;5136554;27;19911;-47
2023/10/20 02:41:36;;;;;;;;;;;8.90;99.90;;;;;;5135701;27;21483;-49
2023/10/20 02:44:02;;;;;;;;;;;8.90;99.90;;;;;;5136287;27;19943;-49
2023/10/20 02:46:27;;;;;;;;;;;8.90;99.90;;;;;;5136450;27;20323;-47
2023/10/20 02:48:53;;;;;;;;;;;8.90;99.90;;;;;;5136254;27;20369;-47
2023/10/20 02:51:18;;;;;;;;;;;8.80;99.90;;;;;;5136299;27;19916;-46
2023/10/20 02:53:44;;;;;;;;;;;8.90;99.90;;;;;;5136090;27;19908;-47
2023/10/20 02:56:13;;;;;;;;;;;8.90;99.90;;;;;;5135376;27;20366;-47
2023/10/20 02:58:39;;;;;;;;;;;8.80;99.90;;;;;;5136103;27;19908;-47
2023/10/20 03:01:05;;;;;;;;;;;8.80;99.90;;;;;;5136087;27;19908;-49
2023/10/20 03:03:31;;;;;;;;;;;8.90;99.90;;;;;;5135566;27;20342;-47
2023/10/20 03:05:57;;;;;;;;;;;8.80;99.90;;;;;;5119314;27;19919;-48
2023/10/20 03:08:22;;;;;;;;;;;8.80;99.90;;;;;;5115534;28;20282;-48
2023/10/20 03:10:47;;;;;;;;;;;8.80;99.90;;;;;;5115222;28;20324;-51
2023/10/20 03:13:13;;;;;;;;;;;8.80;99.90;;;;;;5115164;28;19915;-50
2023/10/20 03:15:40;;;;;;;;;;;8.80;99.90;;;;;;5116351;27;19908;-47
2023/10/20 03:18:05;;;;;;;;;;;8.80;99.90;;;;;;5135646;27;19951;-47
2023/10/20 03:20:32;;;;;;;;;;;8.80;99.90;;;;;;5135901;27;20280;-47
2023/10/20 03:22:58;;;;;;;;;;;8.80;99.90;;;;;;5135636;27;19915;-48
2023/10/20 03:25:24;;;;;;;;;;;8.80;99.90;;;;;;5135603;27;19907;-47
2023/10/20 03:27:50;;;;;;;;;;;8.80;99.90;;;;;;5135410;27;19913;-47
2023/10/20 03:30:15;;;;;;;;;;;8.80;99.90;;;;;;5135448;27;19919;-48
2023/10/20 03:32:41;;;;;;;;;;;8.80;99.90;;;;;;5135402;27;19953;-48
2023/10/20 03:35:07;;;;;;;;;;;8.80;99.90;;;;;;5135307;27;19915;-49
2023/10/20 03:37:34;;;;;;;;;;;8.80;99.90;;;;;;5135101;27;19927;-50
2023/10/20 03:40:00;;;;;;;;;;;8.80;99.90;;;;;;5135157;27;19930;-46
2023/10/20 03:42:26;;;;;;;;;;;8.80;99.90;;;;;;5135100;27;20414;-51
2023/10/20 03:44:51;;;;;;;;;;;8.80;99.90;;;;;;5134587;27;19908;-47
2023/10/20 03:47:17;;;;;;;;;;;8.80;99.90;;;;;;5120634;27;19961;-46
2023/10/20 03:49:43;;;;;;;;;;;8.80;99.90;;;;;;5114523;28;20358;-48
2023/10/20 03:52:11;;;;;;;;;;;8.70;99.90;;;;;;5114538;28;19972;-47
2023/10/20 03:54:38;;;;;;;;;;;8.80;99.90;;;;;;5114518;28;19960;-47
2023/10/20 03:57:04;;;;;;;;;;;8.70;99.90;;;;;;5114202;28;19977;-47
2023/10/20 03:59:30;;;;;;;;;;;8.70;99.90;;;;;;5114499;28;19938;-47
2023/10/20 04:01:56;;;;;;;;;;;8.70;99.90;;;;;;5114286;28;20336;-48
2023/10/20 04:04:22;;;;;;;;;;;8.70;99.90;;;;;;5114216;28;19908;-47
2023/10/20 04:06:49;;;;;;;;;;;8.70;99.90;;;;;;5114278;28;19915;-47
2023/10/20 04:09:17;;;;;;;;;;;8.70;99.90;;;;;;5114205;28;19912;-46
2023/10/20 04:11:43;;;;;;;;;;;8.70;99.90;;;;;;5114031;28;19911;-49
2023/10/20 04:14:09;;;;;;;;;;;8.70;99.90;;;;;;5121816;27;19914;-47
2023/10/20 04:16:39;;;;;;;;;;;8.70;99.90;;;;;;5126067;27;19912;-47
2023/10/20 04:19:06;;;;;;;;;;;8.70;99.90;;;;;;5114041;28;20259;-48
2023/10/20 04:21:32;;;;;;;;;;;8.70;99.90;;;;;;5114016;28;19930;-47
2023/10/20 04:23:58;;;;;;;;;;;8.70;99.90;;;;;;5113775;28;20402;-47
2023/10/20 04:26:23;;;;;;;;;;;8.70;99.90;;;;;;5113899;28;19907;-48
2023/10/20 04:29:13;;;;;;;;;;;8.70;99.90;;;;;;5113795;28;19961;-48
2023/10/20 04:58:49;;;;;;;;;;;8.70;99.90;;;;;;5133774;27;19915;-47
2023/10/20 05:01:19;;;;;;;;;;;8.60;99.90;;;;;;5133974;27;19915;-46
2023/10/20 05:03:52;;;;;;;;;;;8.70;99.90;;;;;;5133704;27;20354;-47
2023/10/20 05:06:29;;;;;;;;;;;8.60;99.90;;;;;;5134212;27;19911;-47
2023/10/20 05:08:56;;;;;;;;;;;8.60;99.90;;;;;;5122632;27;19918;-46
2023/10/20 05:11:21;;;;;;;;;;;8.60;99.90;;;;;;5128762;27;19977;-48
2023/10/20 05:13:47;;;;;;;;;;;8.60;99.90;;;;;;5118858;28;19919;-50
2023/10/20 05:16:12;;;;;;;;;;;8.60;99.90;;;;;;5120675;28;20003;-50
2023/10/20 05:18:38;;;;;;;;;;;8.60;99.90;;;;;;5129537;28;20006;-49
2023/10/20 05:21:12;;;;;;;;;;;8.60;99.90;;;;;;5118624;28;20453;-48
2023/10/20 05:23:37;;;;;;;;;;;8.60;99.90;;;;;;5126333;28;20370;-49
2023/10/20 05:26:03;;;;;;;;;;;8.60;99.90;;;;;;5131935;27;19908;-47
2023/10/20 05:28:30;;;;;;;;;;;8.60;99.90;;;;;;5132625;28;19926;-48
2023/10/20 05:30:57;;;;;;;;;;;8.60;99.90;;;;;;5127388;28;20381;-47
2023/10/20 05:33:23;;;;;;;;;;;8.60;99.90;;;;;;5132018;28;19919;-47
2023/10/20 05:35:49;;;;;;;;;;;8.50;99.90;;;;;;5119469;28;20320;-48
2023/10/20 05:38:14;;;;;;;;;;;8.60;99.90;;;;;;5125344;27;19924;-46
2023/10/20 05:40:40;;;;;;;;;;;8.50;99.90;;;;;;5133630;28;20324;-47
2023/10/20 05:43:05;;;;;;;;;;;8.50;99.90;;;;;;5120973;28;20285;-52
2023/10/20 05:45:37;;;;;;;;;;;8.50;99.90;;;;;;5132568;28;19908;-47
2023/10/20 05:48:05;;;;;;;;;;;8.50;99.90;;;;;;5126240;28;20486;-47
2023/10/20 05:50:38;;;;;;;;;;;8.50;99.90;;;;;;5119940;28;19939;-47
2023/10/20 05:53:04;;;;;;;;;;;8.50;99.90;;;;;;5128733;28;19915;-46
2023/10/20 05:55:30;;;;;;;;;;;8.50;99.90;;;;;;5126388;27;20274;-47
2023/10/20 05:57:56;;;;;;;;;;;8.50;99.90;;;;;;5127926;28;20679;-47
2023/10/20 06:00:21;;;;;;;;;;;8.50;99.90;;;;;;5113946;28;19912;-48
2023/10/20 06:02:47;;;;;;;;;;;8.50;99.90;;;;;;5121766;28;19911;-51
2023/10/20 06:05:13;;;;;;;;;;;8.40;99.90;;;;;;5132185;28;19911;-48
2023/10/20 06:07:40;;;;;;;;;;;8.40;99.90;;;;;;5133239;27;19995;-47
2023/10/20 06:10:05;;;;;;;;;;;8.50;99.90;;;;;;5136207;27;19915;-48
2023/10/20 06:12:31;;;;;;;;;;;8.50;99.90;;;;;;5137043;27;19916;-46
2023/10/20 06:14:56;;;;;;;;;;;8.40;99.90;;;;;;5130156;27;19918;-46
2023/10/20 06:17:23;;;;;;;;;;;8.40;99.90;;;;;;5126352;27;20354;-47
2023/10/20 06:19:48;;;;;;;;;;;8.50;99.90;;;;;;5128522;27;19907;-49
2023/10/20 06:22:14;;;;;;;;;;;8.40;99.90;;;;;;5124549;27;19908;-49
2023/10/20 06:24:39;;;;;;;;;;;8.40;99.90;;;;;;5126458;27;19911;-46
2023/10/20 06:27:05;;;;;;;;;;;8.40;99.90;;;;;;5126274;27;19911;-47
2023/10/20 06:34:41;;;;;;;;;;;8.40;99.90;;;;;;5137096;27;19979;-48
2023/10/20 06:37:13;;;;;;;;;;;8.40;99.90;;;;;;5124770;27;19920;-47
2023/10/20 06:39:39;;;;;;;;;;;8.40;99.90;;;;;;5128056;27;19915;-48
2023/10/20 06:42:05;;;;;;;;;;;8.40;99.90;;;;;;5124524;27;20323;-47
2023/10/20 06:44:30;;;;;;;;;;;8.40;99.90;;;;;;5122747;27;20439;-48
2023/10/20 06:46:56;;;;;;;;;;;8.50;99.90;;;;;;5134191;27;20004;-46
2023/10/20 06:49:23;;;;;;;;;;;8.40;99.90;;;;;;5127064;27;19931;-49
2023/10/20 06:51:49;;;;;;;;;;;8.40;99.90;;;;;;5128011;27;19915;-47
2023/10/20 06:54:14;;;;;;;;;;;8.50;99.90;;;;;;5115646;28;20384;-47
2023/10/20 06:56:39;;;;;;;;;;;8.50;99.90;;;;;;5123437;27;19907;-47
2023/10/20 06:59:05;;;;;;;;;;;8.50;99.90;;;;;;5136238;27;20358;-46
2023/10/20 07:01:33;;;;;;;;;;;8.50;99.90;;;;;;5130982;27;19931;-49
2023/10/20 07:03:59;;;;;;;;;;;8.40;99.90;;;;;;5131011;27;19912;-47
2023/10/20 07:06:24;;;;;;;;;;;8.40;99.90;;;;;;5121971;27;20278;-48
2023/10/20 07:08:50;;;;;;;;;;;8.40;99.90;;;;;;5125138;27;19915;-47
2023/10/20 07:11:16;;;;;;;;;;;8.40;99.90;;;;;;5124582;27;19927;-48
2023/10/20 07:13:44;;;;;;;;;;;8.40;99.90;;;;;;5122541;27;19916;-47
2023/10/20 07:16:11;;;;;;;;;;;8.40;99.90;;;;;;5127814;27;20362;-48
2023/10/20 07:18:38;;;;;;;;;;;8.40;99.90;;;;;;5121403;27;20025;-48
2023/10/20 07:21:03;;;;;;;;;;;8.50;99.90;;;;;;5129498;27;19912;-47
2023/10/20 07:23:29;;;;;;;;;;;8.40;99.90;;;;;;5125532;27;20305;-47
2023/10/20 07:25:54;;;;;;;;;;;8.40;99.90;;;;;;5126160;27;19908;-47
2023/10/20 07:28:20;;;;;;;;;;;8.40;99.90;;;;;;5135626;27;20270;-47
2023/10/20 07:30:45;;;;;;;;;;;8.40;99.90;;;;;;5135209;27;19923;-50
2023/10/20 07:33:11;;;;;;;;;;;8.40;99.90;;;;;;5135572;27;19914;-49
2023/10/20 07:35:37;;;;;;;;;;;8.40;99.90;;;;;;5135227;27;20005;-47
2023/10/20 07:38:04;;;;;;;;;;;8.50;99.90;;;;;;5122751;27;19928;-48
2023/10/20 07:40:34;;;;;;;;;;;8.40;99.90;;;;;;5126366;27;19911;-48
2023/10/20 07:43:00;;;;;;;;;;;8.40;99.90;;;;;;5115765;27;20422;-46
2023/10/20 07:45:28;;;;;;;;;;;8.40;99.90;;;;;;5114716;28;20010;-46
2023/10/20 07:47:53;;;;;;;;;;;8.40;99.90;;;;;;5118934;27;20002;-48
2023/10/20 07:50:19;;;;;;;;;;;8.40;99.90;;;;;;5120841;27;20343;-47
2023/10/20 07:52:44;;;;;;;;;;;8.40;99.90;;;;;;5114482;28;19907;-47
2023/10/20 07:55:10;;;;;;;;;;;8.40;99.90;;;;;;5114495;28;19916;-47
2023/10/20 07:57:35;;;;;;;;;;;8.50;99.90;;;;;;5114449;28;19914;-47
2023/10/20 08:00:01;;;;;;;;;;;8.50;99.90;;;;;;5128975;27;19920;-49
2023/10/20 08:02:27;;;;;;;;;;;8.50;99.90;;;;;;5129398;27;19911;-46
2023/10/20 08:04:52;;;;;;;;;;;8.50;99.90;;;;;;5123764;27;19919;-50
2023/10/20 08:07:18;;;;;;;;;;;8.50;99.90;;;;;;5124625;27;19971;-48
2023/10/20 08:09:43;;;;;;;;;;;8.50;99.90;;;;;;5133255;27;20263;-48
2023/10/20 08:12:09;;;;;;;;;;;8.50;99.90;;;;;;5134056;27;19911;-48
2023/10/20 08:14:34;;;;;;;;;;;8.50;99.90;;;;;;5144350;27;19919;-47
2023/10/20 08:17:03;;;;;;;;;;;8.40;99.90;;;;;;5113761;28;20385;-46
2023/10/20 08:19:30;;;;;;;;;;;8.40;99.90;;;;;;5117633;27;19992;-48
2023/10/20 08:21:55;;;;;;;;;;;8.40;99.90;;;;;;5134089;27;20019;-48
2023/10/20 08:24:21;;;;;;;;;;;8.50;99.90;;;;;;5134301;27;20050;-46
2023/10/20 08:26:46;;;;;;;;;;;8.40;99.90;;;;;;5133831;27;20007;-48
2023/10/20 08:29:12;;;;;;;;;;;8.40;99.90;;;;;;5133879;27;19907;-47
2023/10/20 08:31:38;;;;;;;;;;;8.40;99.90;;;;;;5131550;27;20014;-47
2023/10/20 08:34:04;;;;;;;;;;;8.40;99.90;;;;;;5133862;27;19943;-47
2023/10/20 08:36:29;;;;;;;;;;;8.40;99.90;;;;;;5130172;27;19998;-48
2023/10/20 08:38:55;;;;;;;;;;;8.40;99.90;;;;;;5120171;27;19920;-47
2023/10/20 08:41:24;;;;;;;;;;;8.40;99.90;;;;;;5125166;27;19919;-47
2023/10/20 08:43:49;;;;;;;;;;;8.40;99.90;;;;;;5133725;27;20324;-47
2023/10/20 08:46:16;;;;;;;;;;;8.40;99.90;;;;;;5133496;27;19919;-47
2023/10/20 08:48:42;;;;;;;;;;;8.40;99.90;;;;;;5133494;27;20006;-46
2023/10/20 08:51:08;;;;;;;;;;;8.40;99.90;;;;;;5122777;27;20010;-49
2023/10/20 08:53:34;;;;;;;;;;;8.40;99.90;;;;;;5133082;27;20007;-47
2023/10/20 08:56:01;;;;;;;;;;;8.30;99.90;;;;;;5133207;27;19946;-47
2023/10/20 08:58:28;;;;;;;;;;;8.30;99.90;;;;;;5133334;27;19931;-48
2023/10/20 09:00:54;;;;;;;;;;;8.30;99.90;;;;;;5112871;28;19908;-48
2023/10/20 09:03:19;;;;;;;;;;;8.30;99.90;;;;;;5112708;28;20022;-47
2023/10/20 09:05:45;;;;;;;;;;;8.30;99.90;;;;;;5118371;27;20384;-49
2023/10/20 09:08:12;;;;;;;;;;;8.30;99.90;;;;;;5122970;27;19911;-47
2023/10/20 09:10:45;;;;;;;;;;;8.30;99.90;;;;;;5117477;28;19919;-50
2023/10/20 09:13:11;;;;;;;;;;;8.30;99.90;;;;;;5127869;27;19908;-50
2023/10/20 09:15:37;;;;;;;;;;;8.30;99.90;;;;;;5110964;28;20361;-51
2023/10/20 09:18:06;;;;;;;;;;;8.30;99.90;;;;;;5130293;28;19914;-48
2023/10/20 09:20:32;;;;;;;;;;;8.30;99.90;;;;;;5133242;28;19943;-48
2023/10/20 09:22:57;;;;;;;;;;;8.30;99.90;;;;;;5121227;28;19919;-50
2023/10/20 09:25:23;;;;;;;;;;;8.30;99.90;;;;;;5113181;28;19962;-49
2023/10/20 09:27:49;;;;;;;;;;;8.30;99.90;;;;;;5113300;28;19931;-49
2023/10/20 09:30:15;;;;;;;;;;;8.20;99.90;;;;;;5113633;28;20022;-52
2023/10/20 09:32:40;;;;;;;;;;;8.20;99.90;;;;;;5130272;28;19957;-47
2023/10/20 09:35:06;;;;;;;;;;;8.20;99.90;;;;;;5134148;28;19907;-50
2023/10/20 09:37:33;;;;;;;;;;;8.30;99.90;;;;;;5129113;27;19927;-49
2023/10/20 09:40:09;;;;;;;;;;;8.20;99.90;;;;;;5122863;28;19912;-50
2023/10/20 09:43:08;;;;;;;;;;;8.20;99.90;;;;;;5095330;28;20503;-52
2023/10/20 09:45:37;;;;;;;;;;;8.20;99.90;;;;;;5101563;27;19912;-49
2023/10/20 09:48:06;;;;;;;;;;;8.20;99.90;;;;;;5137400;27;19934;-48
2023/10/20 09:50:33;;;;;;;;;;;8.10;99.90;;;;;;5133215;27;19930;-49
2023/10/20 09:52:59;;;;;;;;;;;8.10;99.90;;;;;;5135270;27;19964;-49
2023/10/20 09:55:25;;;;;;;;;;;8.10;99.90;;;;;;5137924;27;19989;-48
2023/10/20 09:57:51;;;;;;;;;;;8.10;99.90;;;;;;5136123;27;20393;-49
2023/10/20 10:00:28;;;;;;;;;;;8.10;99.90;;;;;;5137689;27;20365;-50
2023/10/20 10:02:56;;;;;;;;;;;8.10;99.90;;;;;;5130130;27;20525;-52
2023/10/20 10:05:23;;;;;;;;;;;8.10;99.90;;;;;;5135692;27;19922;-50
2023/10/20 10:08:01;;;;;;;;;;;8.10;99.90;;;;;;5134170;27;20002;-48
2023/10/20 10:10:26;;;;;;;;;;;8.00;99.90;;;;;;5134309;27;19924;-53
2023/10/20 10:13:04;;;;;;;;;;;8.10;99.90;;;;;;5128909;27;19912;-49
2023/10/20 10:15:46;;;;;;;;;;;8.10;99.90;;;;;;5116437;28;19908;-52
2023/10/20 10:18:13;;;;;;;;;;;8.10;99.90;;;;;;5117634;27;19916;-51
2023/10/20 10:20:48;;;;;;;;;;;8.10;99.90;;;;;;5116003;28;20358;-53
2023/10/20 10:23:16;;;;;;;;;;;8.10;99.90;;;;;;5134825;27;19969;-54
2023/10/20 10:25:42;;;;;;;;;;;8.00;99.90;;;;;;5136569;27;20189;-51
2023/10/20 10:28:14;;;;;;;;;;;8.00;99.90;;;;;;5136558;27;19942;-52
2023/10/20 10:30:40;;;;;;;;;;;8.00;99.90;;;;;;5137275;27;19915;-51
2023/10/20 10:33:08;;;;;;;;;;;8.00;99.90;;;;;;5136290;27;20326;-52
2023/10/20 10:35:36;;;;;;;;;;;8.00;99.90;;;;;;5136987;27;19945;-48
2023/10/20 10:38:03;;;;;;;;;;;7.90;99.90;;;;;;5134253;27;19923;-49
2023/10/20 10:40:28;;;;;;;;;;;7.90;99.90;;;;;;5124721;27;19912;-54
2023/10/20 10:42:54;;;;;;;;;;;7.90;99.90;;;;;;5129819;27;20259;-52
2023/10/20 10:45:24;;;;;;;;;;;7.90;99.90;;;;;;5135195;27;19930;-50
2023/10/20 10:48:16;;;;;;;;;;;7.90;99.90;;;;;;5130294;27;19920;-49
2023/10/20 10:50:43;;;;;;;;;;;7.90;99.90;;;;;;5128093;27;19919;-50
2023/10/20 10:53:09;;;;;;;;;;;8.00;99.90;;;;;;5130063;27;19938;-53
2023/10/20 10:55:37;;;;;;;;;;;7.90;99.90;;;;;;5134270;27;19908;-53
2023/10/20 10:58:04;;;;;;;;;;;7.90;99.90;;;;;;5135121;27;20354;-50
2023/10/20 11:00:30;;;;;;;;;;;7.90;99.90;;;;;;5136030;27;19914;-49
2023/10/20 11:02:57;;;;;;;;;;;7.90;99.90;;;;;;5126506;27;19994;-53
2023/10/20 11:05:22;;;;;;;;;;;7.90;99.90;;;;;;5115394;28;19912;-51
2023/10/20 11:07:59;;;;;;;;;;;7.90;99.90;;;;;;5128538;27;20385;-49
2023/10/20 11:10:28;;;;;;;;;;;7.90;99.90;;;;;;5135550;27;19937;-51
2023/10/20 11:12:57;;;;;;;;;;;7.90;99.90;;;;;;5135318;27;20334;-53
2023/10/20 11:15:29;;;;;;;;;;;7.90;99.90;;;;;;5135325;27;19950;-51
2023/10/20 11:17:55;;;;;;;;;;;7.90;99.90;;;;;;5134599;27;19919;-51
2023/10/20 11:20:20;;;;;;;;;;;7.90;99.90;;;;;;5135508;27;20385;-53
2023/10/20 11:22:51;;;;;;;;;;;7.90;99.90;;;;;;5133122;27;19911;-51
2023/10/20 11:25:18;;;;;;;;;;;7.90;99.90;;;;;;5120187;27;20400;-53
2023/10/20 11:27:46;;;;;;;;;;;7.90;99.90;;;;;;5120590;27;20369;-50
2023/10/20 11:30:12;;;;;;;;;;;7.90;99.90;;;;;;5126266;27;20014;-51
2023/10/20 11:32:37;;;;;;;;;;;7.90;99.90;;;;;;5127205;27;20006;-49
2023/10/20 11:35:04;;;;;;;;;;;7.80;99.90;;;;;;5132863;27;20277;-51
2023/10/20 11:37:29;;;;;;;;;;;7.80;99.90;;;;;;5120779;27;19954;-51
2023/10/20 11:39:55;;;;;;;;;;;7.80;99.90;;;;;;5126005;27;19912;-52
2023/10/20 11:42:20;;;;;;;;;;;7.80;99.90;;;;;;5115861;27;19919;-50
2023/10/20 11:44:46;;;;;;;;;;;7.80;99.90;;;;;;5121483;27;19983;-50
2023/10/20 11:47:11;;;;;;;;;;;7.80;99.90;;;;;;5132368;27;20018;-51
2023/10/20 11:49:37;;;;;;;;;;;7.80;99.90;;;;;;5126107;27;19911;-50
2023/10/20 11:52:05;;;;;;;;;;;7.80;99.90;;;;;;5129344;27;19915;-53
2023/10/20 11:54:31;;;;;;;;;;;7.80;99.90;;;;;;5127578;27;19912;-50
2023/10/20 11:56:57;;;;;;;;;;;7.80;99.90;;;;;;5119398;27;19912;-51
2023/10/20 11:59:22;;;;;;;;;;;7.90;99.90;;;;;;5124449;27;20323;-53
2023/10/20 12:01:47;;;;;;;;;;;7.90;99.90;;;;;;5125568;27;19932;-49
2023/10/20 12:04:13;;;;;;;;;;;7.80;99.90;;;;;;5122196;27;19999;-49
2023/10/20 12:06:39;;;;;;;;;;;7.80;99.90;;;;;;5130999;27;19964;-53
2023/10/20 12:09:08;;;;;;;;;;;7.80;99.90;;;;;;5117337;27;19918;-53
2023/10/20 12:11:34;;;;;;;;;;;7.80;99.90;;;;;;5124942;27;19920;-51
2023/10/20 12:14:00;;;;;;;;;;;7.90;99.90;;;;;;5133858;27;19915;-50
2023/10/20 12:16:26;;;;;;;;;;;7.80;99.90;;;;;;5120033;27;19912;-53
2023/10/20 12:18:51;;;;;;;;;;;7.90;99.90;;;;;;5133806;27;19908;-53
2023/10/20 12:21:17;;;;;;;;;;;7.90;99.90;;;;;;5134137;27;19976;-53
2023/10/20 12:23:43;;;;;;;;;;;8.00;99.90;;;;;;5134393;27;19915;-51
2023/10/20 12:26:08;;;;;;;;;;;8.00;99.90;;;;;;5134234;27;19908;-53
2023/10/20 12:28:34;;;;;;;;;;;8.00;99.90;;;;;;5133938;27;19915;-51
2023/10/20 12:31:00;;;;;;;;;;;8.00;99.90;;;;;;5134265;27;20317;-50
2023/10/20 12:33:27;;;;;;;;;;;7.90;99.90;;;;;;5130330;27;20416;-51
2023/10/20 12:35:55;;;;;;;;;;;7.90;99.90;;;;;;5134135;27;19915;-53
2023/10/20 12:38:21;;;;;;;;;;;7.90;99.90;;;;;;5133495;27;20259;-51
2023/10/20 12:40:48;;;;;;;;;;;7.90;99.90;;;;;;5133000;27;19914;-51
2023/10/20 12:43:14;;;;;;;;;;;7.90;99.90;;;;;;5127043;27;19911;-52
2023/10/20 12:45:39;;;;;;;;;;;7.90;99.90;;;;;;5113476;28;20359;-53
2023/10/20 12:48:08;;;;;;;;;;;7.90;99.90;;;;;;5127322;27;19911;-53
2023/10/20 12:50:33;;;;;;;;;;;7.80;99.90;;;;;;5133551;27;19923;-53
2023/10/20 12:52:59;;;;;;;;;;;7.80;99.90;;;;;;5127787;27;19915;-51
2023/10/20 12:55:26;;;;;;;;;;;7.90;99.90;;;;;;5126334;27;19957;-53
2023/10/20 12:57:52;;;;;;;;;;;7.90;99.90;;;;;;5125215;27;20346;-54
2023/10/20 13:00:17;;;;;;;;;;;7.90;99.90;;;;;;5131491;27;20402;-52
2023/10/20 13:02:45;;;;;;;;;;;7.80;99.90;;;;;;5122309;27;20286;-53
2023/10/20 13:05:11;;;;;;;;;;;7.80;99.90;;;;;;5113067;28;20370;-52
2023/10/20 13:07:37;;;;;;;;;;;7.80;99.90;;;;;;5122715;27;20007;-52
2023/10/20 13:10:03;;;;;;;;;;;7.80;99.90;;;;;;5132489;27;19977;-49
2023/10/20 13:12:29;;;;;;;;;;;7.80;99.90;;;;;;5132906;27;20426;-49
2023/10/20 13:14:56;;;;;;;;;;;7.70;99.90;;;;;;5133565;27;19953;-50
2023/10/20 13:17:21;;;;;;;;;;;7.80;99.90;;;;;;5130162;27;20426;-53
2023/10/20 13:19:49;;;;;;;;;;;7.80;99.90;;;;;;5132488;28;20003;-52
2023/10/20 13:22:15;;;;;;;;;;;7.80;99.90;;;;;;5132797;28;19914;-49
2023/10/20 13:24:41;;;;;;;;;;;7.70;99.90;;;;;;5133386;28;20374;-52
2023/10/20 13:27:07;;;;;;;;;;;7.70;99.90;;;;;;5131351;28;19914;-51
2023/10/20 13:29:32;;;;;;;;;;;7.70;99.90;;;;;;5114022;28;20012;-53
2023/10/20 13:31:58;;;;;;;;;;;7.70;99.90;;;;;;5116228;28;19988;-53
2023/10/20 13:34:23;;;;;;;;;;;7.70;99.90;;;;;;5133371;28;19911;-50
2023/10/20 13:36:49;;;;;;;;;;;7.60;99.90;;;;;;5129026;27;19922;-50
2023/10/20 13:39:16;;;;;;;;;;;7.70;99.90;;;;;;5127263;28;19980;-54
2023/10/20 13:41:42;;;;;;;;;;;7.60;99.90;;;;;;5112896;28;20365;-53
2023/10/20 13:44:09;;;;;;;;;;;7.60;99.90;;;;;;5133413;28;19912;-52
2023/10/20 13:46:35;;;;;;;;;;;7.60;99.90;;;;;;5124347;28;20231;-54
2023/10/20 13:49:01;;;;;;;;;;;7.60;99.90;;;;;;5114831;28;19912;-52
2023/10/20 13:51:28;;;;;;;;;;;7.60;99.90;;;;;;5120644;28;19919;-51
2023/10/20 13:53:54;;;;;;;;;;;7.60;99.90;;;;;;5122463;28;19914;-53
2023/10/20 13:56:20;;;;;;;;;;;7.60;99.90;;;;;;5121003;28;19911;-53
2023/10/20 13:58:46;;;;;;;;;;;7.60;99.90;;;;;;5113410;28;19953;-52
2023/10/20 14:01:12;;;;;;;;;;;7.60;99.90;;;;;;5113136;28;21763;-54
2023/10/20 14:03:37;;;;;;;;;;;7.60;99.90;;;;;;5126171;28;20006;-55
2023/10/20 14:06:06;;;;;;;;;;;7.50;99.90;;;;;;5127070;28;20358;-53
2023/10/20 14:08:32;;;;;;;;;;;7.50;99.90;;;;;;5111593;28;19919;-53
2023/10/20 14:11:00;;;;;;;;;;;7.60;99.90;;;;;;5112462;28;20294;-51
2023/10/20 14:13:25;;;;;;;;;;;7.50;99.90;;;;;;5112560;28;20429;-51
2023/10/20 14:15:51;;;;;;;;;;;7.50;99.90;;;;;;5112284;28;19989;-52
2023/10/20 14:18:17;;;;;;;;;;;7.50;99.90;;;;;;5131666;28;19933;-52
2023/10/20 14:20:42;;;;;;;;;;;7.50;99.90;;;;;;5130936;28;19911;-52
2023/10/20 14:23:08;;;;;;;;;;;7.50;99.90;;;;;;5130149;28;19959;-54
2023/10/20 14:25:34;;;;;;;;;;;7.50;99.90;;;;;;5132250;28;19907;-48
2023/10/20 14:27:59;;;;;;;;;;;7.50;99.90;;;;;;5132378;27;19914;-51
2023/10/20 14:30:25;;;;;;;;;;;7.50;99.90;;;;;;5136163;27;20292;-53
2023/10/20 14:32:50;;;;;;;;;;;7.50;99.90;;;;;;5130925;27;19998;-52
2023/10/20 14:35:16;;;;;;;;;;;7.50;99.90;;;;;;5128544;27;19943;-53
2023/10/20 14:37:41;;;;;;;;;;;7.50;99.90;;;;;;5133556;27;19923;-53
2023/10/20 14:40:07;;;;;;;;;;;7.50;99.90;;;;;;5134173;27;20601;-54
2023/10/20 14:42:32;;;;;;;;;;;7.50;99.90;;;;;;5128956;27;20340;-56
2023/10/20 14:44:59;;;;;;;;;;;7.50;99.90;;;;;;5134930;27;20404;-54
2023/10/20 14:47:25;;;;;;;;;;;7.50;99.90;;;;;;5136192;27;19990;-53
2023/10/20 14:49:53;;;;;;;;;;;7.40;99.90;;;;;;5135008;27;19908;-53
2023/10/20 14:52:19;;;;;;;;;;;7.50;99.90;;;;;;5136473;27;19914;-52
2023/10/20 14:54:45;;;;;;;;;;;7.40;99.90;;;;;;5136331;27;19907;-53
2023/10/20 14:57:10;;;;;;;;;;;7.40;99.90;;;;;;5136357;27;19944;-54
2023/10/20 14:59:36;;;;;;;;;;;7.40;99.90;;;;;;5136243;27;20113;-52